Time;durP1;ratioP1;P1;durP2;ratioP2;P2;SDS_P1;SDS_P2;PMS_P1;PMS_P2;Temp;Humidity;BMP_temperature;BMP_pressure;BME280_temperature;BME280_humidity;BME280_pressure;Samples;Min_cycle;Max_cycle;Signal;HPM_P1;HPM_P2
2021/09/08 00:00:41;;;;;;;0.40;0.30;;;16.80;99.90;;;;;;5073012;28;20404;-74
2021/09/08 00:03:08;;;;;;;0.40;0.30;;;16.80;99.90;;;;;;5071709;28;20874;-74
2021/09/08 00:05:33;;;;;;;0.40;0.20;;;16.70;99.90;;;;;;5072616;28;20455;-74
2021/09/08 00:07:59;;;;;;;0.40;0.30;;;16.70;99.90;;;;;;5071813;28;20532;-74
2021/09/08 00:10:25;;;;;;;0.40;0.30;;;16.70;99.90;;;;;;5072466;28;20400;-75
2021/09/08 00:12:51;;;;;;;0.40;0.20;;;16.60;99.90;;;;;;5072475;28;20383;-72
2021/09/08 00:15:17;;;;;;;0.40;0.20;;;16.60;99.90;;;;;;5072623;28;20897;-74
2021/09/08 00:17:43;;;;;;;0.40;0.20;;;16.70;99.90;;;;;;5072378;28;20751;-74
2021/09/08 00:20:10;;;;;;;0.40;0.30;;;16.60;99.90;;;;;;5071361;28;20395;-74
2021/09/08 00:22:36;;;;;;;0.40;0.30;;;16.60;99.90;;;;;;5072287;28;20391;-74
2021/09/08 00:25:04;;;;;;;0.40;0.30;;;16.50;99.90;;;;;;5071641;28;20843;-74
2021/09/08 00:27:30;;;;;;;0.40;0.30;;;16.50;99.90;;;;;;5071843;28;20379;-74
2021/09/08 00:29:55;;;;;;;0.40;0.20;;;16.40;99.90;;;;;;5053397;28;20420;-74
2021/09/08 00:32:21;;;;;;;0.40;0.30;;;16.40;99.90;;;;;;5071929;28;20458;-74
2021/09/08 00:34:46;;;;;;;0.40;0.20;;;16.40;99.90;;;;;;5072238;28;20847;-74
2021/09/08 00:37:12;;;;;;;0.40;0.30;;;16.40;99.90;;;;;;5071707;28;20445;-74
2021/09/08 00:39:38;;;;;;;0.40;0.30;;;16.40;99.90;;;;;;5071858;28;20400;-74
2021/09/08 00:42:11;;;;;;;0.40;0.30;;;16.40;99.90;;;;;;5071036;28;20528;-74
2021/09/08 00:44:37;;;;;;;0.40;0.20;;;16.40;99.90;;;;;;5071724;28;20375;-74
2021/09/08 00:47:03;;;;;;;0.40;0.20;;;16.30;99.90;;;;;;5071228;28;20918;-74
2021/09/08 00:49:29;;;;;;;0.40;0.30;;;16.30;99.90;;;;;;5071603;28;20461;-74
2021/09/08 00:51:56;;;;;;;0.40;0.30;;;16.30;99.90;;;;;;5071095;28;20438;-73
2021/09/08 00:54:23;;;;;;;0.40;0.30;;;16.20;99.90;;;;;;5071631;28;20394;-74
2021/09/08 00:56:54;;;;;;;0.40;0.30;;;16.30;99.90;;;;;;5071545;28;20388;-75
2021/09/08 00:59:20;;;;;;;0.40;0.30;;;16.20;99.90;;;;;;5070989;28;20457;-74
2021/09/08 01:01:46;;;;;;;0.40;0.30;;;16.30;99.90;;;;;;5071570;28;20387;-74
2021/09/08 01:04:13;;;;;;;0.40;0.30;;;16.30;99.90;;;;;;5070655;28;20403;-74
2021/09/08 01:06:40;;;;;;;0.40;0.20;;;16.30;99.90;;;;;;5071349;28;20376;-74
2021/09/08 01:09:06;;;;;;;0.40;0.30;;;16.30;99.90;;;;;;5069725;28;20455;-74
2021/09/08 01:11:33;;;;;;;0.40;0.30;;;16.40;99.90;;;;;;5071379;28;20390;-74
2021/09/08 01:13:58;;;;;;;0.40;0.20;;;16.30;99.90;;;;;;5070561;28;20407;-73
2021/09/08 01:16:24;;;;;;;0.40;0.30;;;16.20;99.90;;;;;;5053517;28;20418;-74
2021/09/08 01:18:50;;;;;;;0.40;0.30;;;16.20;99.90;;;;;;5071162;28;20384;-73
2021/09/08 01:21:15;;;;;;;0.40;0.30;;;16.20;99.90;;;;;;5070632;28;20382;-73
2021/09/08 01:23:41;;;;;;;0.40;0.30;;;16.20;99.90;;;;;;5071104;28;20382;-73
2021/09/08 01:26:07;;;;;;;0.40;0.30;;;16.20;99.90;;;;;;5070430;28;20468;-73
2021/09/08 01:28:33;;;;;;;0.40;0.20;;;16.10;99.90;;;;;;5071208;28;20387;-74
2021/09/08 01:30:59;;;;;;;0.40;0.30;;;16.00;99.90;;;;;;5070313;28;20416;-74
2021/09/08 01:33:25;;;;;;;0.40;0.20;;;15.80;99.90;;;;;;5071019;28;20727;-73
2021/09/08 01:35:51;;;;;;;0.40;0.30;;;15.80;99.90;;;;;;5070835;28;20463;-73
2021/09/08 01:38:17;;;;;;;0.40;0.30;;;15.70;99.90;;;;;;5070364;28;20467;-73
2021/09/08 01:40:43;;;;;;;0.40;0.30;;;15.60;99.90;;;;;;5070531;28;20388;-73
2021/09/08 01:43:09;;;;;;;0.40;0.30;;;15.60;99.90;;;;;;5070628;28;20411;-73
2021/09/08 01:45:39;;;;;;;0.40;0.30;;;15.50;99.90;;;;;;5070759;28;20388;-74
2021/09/08 01:48:05;;;;;;;0.40;0.20;;;15.50;99.90;;;;;;5070116;28;20807;-73
2021/09/08 01:50:31;;;;;;;0.40;0.30;;;15.60;99.90;;;;;;5070643;28;20408;-74
2021/09/08 01:52:57;;;;;;;0.40;0.30;;;15.50;99.90;;;;;;5070558;28;20383;-74
2021/09/08 01:55:23;;;;;;;0.40;0.20;;;15.50;99.90;;;;;;5070798;28;20728;-73
2021/09/08 01:57:48;;;;;;;0.40;0.20;;;15.50;99.90;;;;;;5070778;28;20388;-73
2021/09/08 02:00:15;;;;;;;0.40;0.30;;;15.40;99.90;;;;;;5070012;28;20412;-73
2021/09/08 02:02:41;;;;;;;0.40;0.30;;;15.40;99.90;;;;;;5070574;28;20863;-73
2021/09/08 02:05:07;;;;;;;0.40;0.30;;;15.50;99.90;;;;;;5069661;28;20410;-73
2021/09/08 02:07:33;;;;;;;0.40;0.30;;;15.40;99.90;;;;;;5070508;28;20384;-73
2021/09/08 02:09:58;;;;;;;0.40;0.30;;;15.50;99.90;;;;;;5069864;28;20427;-73
2021/09/08 02:12:24;;;;;;;0.40;0.30;;;15.40;99.90;;;;;;5070626;28;20463;-73
2021/09/08 02:14:50;;;;;;;0.40;0.30;;;15.40;99.90;;;;;;5070742;28;20372;-73
2021/09/08 02:17:15;;;;;;;0.40;0.30;;;15.30;99.90;;;;;;5069957;28;20376;-73
2021/09/08 02:19:41;;;;;;;0.40;0.30;;;15.30;99.90;;;;;;5070464;28;20379;-73
2021/09/08 02:22:07;;;;;;;0.40;0.30;;;15.20;99.90;;;;;;5072782;28;20386;-73
2021/09/08 02:24:32;;;;;;;0.40;0.30;;;15.20;99.90;;;;;;5074341;28;20430;-73
2021/09/08 02:26:58;;;;;;;0.40;0.30;;;15.20;99.90;;;;;;5074446;28;20394;-73
2021/09/08 02:29:24;;;;;;;0.40;0.30;;;15.30;99.90;;;;;;5073953;28;20422;-73
2021/09/08 02:31:50;;;;;;;0.40;0.30;;;15.10;99.90;;;;;;5074309;28;20483;-74
2021/09/08 02:34:15;;;;;;;0.40;0.30;;;15.10;99.90;;;;;;5073758;28;20467;-75
2021/09/08 02:36:41;;;;;;;0.40;0.30;;;15.10;99.90;;;;;;5074536;28;20467;-74
2021/09/08 02:39:07;;;;;;;0.40;0.20;;;15.10;99.90;;;;;;5073620;28;20395;-74
2021/09/08 02:41:33;;;;;;;0.40;0.30;;;15.10;99.90;;;;;;5074119;28;20383;-74
2021/09/08 02:43:59;;;;;;;0.40;0.30;;;15.10;99.90;;;;;;5074236;28;20371;-75
2021/09/08 02:46:25;;;;;;;0.40;0.30;;;15.20;99.90;;;;;;5074171;28;20391;-75
2021/09/08 02:48:50;;;;;;;0.40;0.30;;;15.00;99.90;;;;;;5074001;28;20890;-75
2021/09/08 02:51:16;;;;;;;0.40;0.20;;;15.00;99.90;;;;;;5073317;28;20386;-75
2021/09/08 02:53:42;;;;;;;0.40;0.30;;;15.00;99.90;;;;;;5074319;28;20415;-75
2021/09/08 02:56:08;;;;;;;0.40;0.20;;;15.00;99.90;;;;;;5073238;28;20836;-74
2021/09/08 02:58:33;;;;;;;0.40;0.30;;;14.90;99.90;;;;;;5073462;28;20384;-74
2021/09/08 03:00:59;;;;;;;0.40;0.30;;;14.90;99.90;;;;;;5073762;28;20917;-74
2021/09/08 03:03:25;;;;;;;0.40;0.30;;;15.00;99.90;;;;;;5073200;28;20376;-74
2021/09/08 03:05:51;;;;;;;0.40;0.30;;;14.80;99.90;;;;;;5073599;28;20440;-75
2021/09/08 03:08:17;;;;;;;0.40;0.30;;;14.80;99.90;;;;;;5072978;28;20459;-75
2021/09/08 03:10:44;;;;;;;0.40;0.30;;;14.80;99.90;;;;;;5073492;28;20431;-74
2021/09/08 03:13:11;;;;;;;0.40;0.20;;;14.80;99.90;;;;;;5072995;28;20384;-74
2021/09/08 03:15:37;;;;;;;0.40;0.30;;;14.70;99.90;;;;;;5073419;28;20411;-74
2021/09/08 03:18:04;;;;;;;0.40;0.30;;;14.70;99.90;;;;;;5072955;28;20493;-74
2021/09/08 03:20:30;;;;;;;0.40;0.30;;;14.70;99.90;;;;;;5073183;28;20922;-74
2021/09/08 03:22:55;;;;;;;0.40;0.20;;;14.70;99.90;;;;;;5073488;28;20379;-74
2021/09/08 03:25:21;;;;;;;0.40;0.20;;;14.70;99.90;;;;;;5072369;28;20380;-74
2021/09/08 03:27:46;;;;;;;0.40;0.30;;;14.70;99.90;;;;;;5073712;28;20387;-74
2021/09/08 03:30:12;;;;;;;0.40;0.30;;;14.60;99.90;;;;;;5072690;28;20420;-74
2021/09/08 03:32:38;;;;;;;0.40;0.30;;;14.50;99.90;;;;;;5072664;28;20772;-74
2021/09/08 03:35:04;;;;;;;0.40;0.20;;;14.60;99.90;;;;;;5072658;28;20382;-74
2021/09/08 03:37:30;;;;;;;0.40;0.20;;;14.60;99.90;;;;;;5071757;28;20406;-75
2021/09/08 03:39:56;;;;;;;0.40;0.20;;;14.50;99.90;;;;;;5073180;28;20397;-74
2021/09/08 03:42:24;;;;;;;0.40;0.30;;;14.50;99.90;;;;;;5072357;28;20379;-74
2021/09/08 03:44:50;;;;;;;0.40;0.30;;;14.50;99.90;;;;;;5072994;28;20772;-75
2021/09/08 03:47:16;;;;;;;0.40;0.20;;;14.40;99.90;;;;;;5072049;28;20953;-75
2021/09/08 03:49:45;;;;;;;0.40;0.20;;;14.50;99.90;;;;;;5072874;28;20407;-74
2021/09/08 03:52:16;;;;;;;0.40;0.30;;;14.40;99.90;;;;;;5072456;28;20379;-75
2021/09/08 03:54:41;;;;;;;0.40;0.20;;;14.40;99.90;;;;;;5072606;28;20384;-74
2021/09/08 03:57:07;;;;;;;0.40;0.30;;;14.40;99.90;;;;;;5071915;28;20425;-74
2021/09/08 03:59:37;;;;;;;0.40;0.30;;;14.40;99.90;;;;;;5050985;28;20432;-74
2021/09/08 04:02:03;;;;;;;0.40;0.20;;;14.40;99.90;;;;;;5052974;28;20456;-74
2021/09/08 04:04:29;;;;;;;0.40;0.22;;;14.40;99.90;;;;;;5052455;28;20381;-74
2021/09/08 04:06:55;;;;;;;0.40;0.30;;;14.10;99.90;;;;;;5052895;28;20381;-75
2021/09/08 04:09:21;;;;;;;0.40;0.30;;;14.10;99.90;;;;;;5052127;28;20481;-74
2021/09/08 04:11:46;;;;;;;0.40;0.30;;;14.10;99.90;;;;;;5052718;28;20385;-74
2021/09/08 04:14:12;;;;;;;0.40;0.30;;;14.00;99.90;;;;;;5052391;28;20408;-74
2021/09/08 04:16:37;;;;;;;0.40;0.30;;;14.00;99.90;;;;;;5052829;28;20486;-74
2021/09/08 04:19:03;;;;;;;0.40;0.30;;;13.90;99.90;;;;;;5052855;28;20385;-74
2021/09/08 04:21:30;;;;;;;0.40;0.30;;;13.90;99.90;;;;;;5051830;28;20496;-74
2021/09/08 04:23:55;;;;;;;0.40;0.30;;;13.90;99.90;;;;;;5052778;28;20385;-74
2021/09/08 04:26:21;;;;;;;0.40;0.30;;;13.90;99.90;;;;;;5052067;28;20570;-74
2021/09/08 04:28:47;;;;;;;0.40;0.30;;;13.90;99.90;;;;;;5052378;28;20742;-74
2021/09/08 04:31:13;;;;;;;0.40;0.30;;;13.80;99.90;;;;;;5050689;28;20392;-74
2021/09/08 04:33:39;;;;;;;0.40;0.20;;;13.80;99.90;;;;;;5052354;28;20416;-74
2021/09/08 04:36:04;;;;;;;0.40;0.25;;;13.70;99.90;;;;;;5052169;28;20381;-74
2021/09/08 04:38:30;;;;;;;0.40;0.20;;;13.80;99.90;;;;;;5051862;28;20842;-74
2021/09/08 04:40:56;;;;;;;0.40;0.30;;;13.80;99.90;;;;;;5051931;28;20393;-74
2021/09/08 04:43:22;;;;;;;0.40;0.30;;;13.70;99.90;;;;;;5050826;28;20382;-75
2021/09/08 04:45:48;;;;;;;0.40;0.30;;;13.80;99.90;;;;;;5052164;28;20377;-74
2021/09/08 04:48:14;;;;;;;0.40;0.30;;;13.80;99.90;;;;;;5051636;28;20373;-74
2021/09/08 04:50:40;;;;;;;0.40;0.27;;;13.80;99.90;;;;;;5051724;28;21490;-75
2021/09/08 04:53:07;;;;;;;0.40;0.28;;;13.70;99.90;;;;;;5051906;28;20405;-75
2021/09/08 04:55:33;;;;;;;0.40;0.20;;;13.60;99.90;;;;;;5051038;28;20480;-74
2021/09/08 04:57:58;;;;;;;0.40;0.30;;;13.50;99.90;;;;;;5051401;28;20442;-74
2021/09/08 05:00:24;;;;;;;0.40;0.30;;;13.50;99.90;;;;;;5068290;28;20498;-75
2021/09/08 05:02:50;;;;;;;0.40;0.30;;;13.40;99.90;;;;;;5070846;28;20433;-74
2021/09/08 05:05:16;;;;;;;0.40;0.30;;;13.50;99.90;;;;;;5070458;28;20387;-74
2021/09/08 05:07:41;;;;;;;0.40;0.30;;;13.60;99.90;;;;;;5070750;28;20376;-75
2021/09/08 05:10:07;;;;;;;0.40;0.30;;;13.60;99.90;;;;;;5053536;28;20457;-75
2021/09/08 05:12:33;;;;;;;0.40;0.30;;;13.50;99.90;;;;;;5070298;28;20878;-75
2021/09/08 05:15:00;;;;;;;0.40;0.20;;;13.40;99.90;;;;;;5071572;28;20376;-75
2021/09/08 05:17:26;;;;;;;0.40;0.30;;;13.40;99.90;;;;;;5070383;28;20384;-75
2021/09/08 05:19:52;;;;;;;0.40;0.20;;;13.40;99.90;;;;;;5071217;28;20380;-75
2021/09/08 05:22:17;;;;;;;0.40;0.30;;;13.50;99.90;;;;;;5070028;28;20855;-75
2021/09/08 05:24:43;;;;;;;0.40;0.30;;;13.50;99.90;;;;;;5070965;28;20871;-75
2021/09/08 05:27:09;;;;;;;0.40;0.30;;;13.50;99.90;;;;;;5070899;28;20380;-76
2021/09/08 05:29:34;;;;;;;0.40;0.20;;;13.60;99.90;;;;;;5069856;28;20933;-75
2021/09/08 05:32:00;;;;;;;0.40;0.30;;;13.50;99.90;;;;;;5070630;28;20414;-75
2021/09/08 05:34:25;;;;;;;0.40;0.30;;;13.40;99.90;;;;;;5070241;28;20402;-76
2021/09/08 05:36:52;;;;;;;0.40;0.20;;;13.40;99.90;;;;;;5070696;28;20379;-75
2021/09/08 05:39:18;;;;;;;0.40;0.20;;;13.50;99.90;;;;;;5070222;28;20418;-76
2021/09/08 05:41:43;;;;;;;0.40;0.30;;;13.30;99.90;;;;;;5070898;28;20375;-76
2021/09/08 05:44:09;;;;;;;0.40;0.30;;;13.50;99.90;;;;;;5070431;28;20392;-76
2021/09/08 05:46:35;;;;;;;0.60;0.60;;;13.50;99.90;;;;;;5070088;28;20388;-76
2021/09/08 05:49:00;;;;;;;0.40;0.30;;;13.50;99.90;;;;;;5070764;28;20387;-75
2021/09/08 05:51:26;;;;;;;0.40;0.20;;;13.60;99.90;;;;;;5070343;28;20387;-75
2021/09/08 05:53:51;;;;;;;0.40;0.30;;;13.60;99.90;;;;;;5070449;28;20384;-75
2021/09/08 05:56:17;;;;;;;0.40;0.30;;;13.60;99.90;;;;;;5069520;28;20383;-76
2021/09/08 05:58:43;;;;;;;0.90;0.50;;;13.70;99.90;;;;;;5070065;28;20431;-75
2021/09/08 06:01:10;;;;;;;0.40;0.30;;;13.80;99.90;;;;;;5067385;28;20502;-73
2021/09/08 06:03:36;;;;;;;0.40;0.30;;;13.90;99.90;;;;;;5070813;28;20371;-73
2021/09/08 06:06:02;;;;;;;0.40;0.30;;;14.00;99.90;;;;;;5086666;28;20866;-73
2021/09/08 06:08:28;;;;;;;0.40;0.30;;;14.10;99.90;;;;;;5069972;28;20479;-72
2021/09/08 06:10:54;;;;;;;0.40;0.30;;;14.10;99.90;;;;;;5070611;28;20453;-72
2021/09/08 06:13:21;;;;;;;0.40;0.30;;;14.10;99.90;;;;;;5069663;28;20498;-73
2021/09/08 06:15:46;;;;;;;0.40;0.20;;;14.20;99.90;;;;;;5070629;28;20376;-72
2021/09/08 06:18:12;;;;;;;0.40;0.30;;;14.20;99.90;;;;;;5070864;28;20379;-73
2021/09/08 06:20:37;;;;;;;0.40;0.30;;;14.30;99.90;;;;;;5069964;28;20853;-73
2021/09/08 06:23:03;;;;;;;0.40;0.30;;;14.30;99.90;;;;;;5070331;28;20422;-73
2021/09/08 06:25:29;;;;;;;0.40;0.30;;;14.40;99.90;;;;;;5070010;28;20770;-74
2021/09/08 06:27:55;;;;;;;0.40;0.30;;;14.50;99.90;;;;;;5070154;28;20836;-74
2021/09/08 06:30:20;;;;;;;0.40;0.30;;;14.60;99.90;;;;;;5069291;28;20760;-74
2021/09/08 06:32:46;;;;;;;0.40;0.30;;;14.80;99.90;;;;;;5070415;28;20440;-74
2021/09/08 06:35:12;;;;;;;0.50;0.30;;;14.80;99.90;;;;;;5069895;28;20475;-74
2021/09/08 06:37:37;;;;;;;0.40;0.20;;;14.90;99.90;;;;;;5069033;28;20395;-74
2021/09/08 06:40:04;;;;;;;0.40;0.30;;;15.00;99.90;;;;;;5070396;28;20378;-74
2021/09/08 06:42:29;;;;;;;0.40;0.30;;;15.10;99.90;;;;;;5069562;28;20445;-75
2021/09/08 06:44:55;;;;;;;0.40;0.20;;;15.10;99.90;;;;;;5070075;28;20367;-74
2021/09/08 06:47:24;;;;;;;0.40;0.20;;;15.10;99.90;;;;;;5068117;28;20376;-74
2021/09/08 06:49:51;;;;;;;0.40;0.20;;;15.20;99.90;;;;;;5070318;28;20806;-74
2021/09/08 06:52:17;;;;;;;0.40;0.28;;;15.30;99.90;;;;;;5069593;28;20376;-73
2021/09/08 06:54:43;;;;;;;0.40;0.28;;;15.50;99.90;;;;;;5069997;28;20383;-73
2021/09/08 06:57:12;;;;;;;0.40;0.30;;;15.50;99.90;;;;;;5070193;28;20870;-73
2021/09/08 06:59:41;;;;;;;0.40;0.30;;;15.60;99.90;;;;;;5068730;28;20419;-73
2021/09/08 07:02:08;;;;;;;0.40;0.30;;;15.70;99.90;;;;;;5070005;28;20762;-73
2021/09/08 07:04:34;;;;;;;0.40;0.30;;;15.80;99.90;;;;;;5069258;28;20383;-74
2021/09/08 07:07:06;;;;;;;0.40;0.20;;;15.80;99.90;;;;;;5070529;28;20379;-73
2021/09/08 07:09:32;;;;;;;0.40;0.22;;;15.90;99.90;;;;;;5073372;28;20411;-73
2021/09/08 07:11:57;;;;;;;0.40;0.25;;;16.00;99.90;;;;;;5074404;28;20394;-73
2021/09/08 07:14:24;;;;;;;0.40;0.20;;;16.00;99.90;;;;;;5073305;28;20376;-73
2021/09/08 07:16:51;;;;;;;0.40;0.40;;;16.10;99.90;;;;;;5074233;28;20383;-73
2021/09/08 07:19:16;;;;;;;0.40;0.30;;;16.20;99.90;;;;;;5072802;28;20989;-73
2021/09/08 07:21:42;;;;;;;0.40;0.20;;;16.30;99.90;;;;;;5073445;28;20387;-73
2021/09/08 07:24:08;;;;;;;0.40;0.20;;;16.50;99.90;;;;;;5073761;28;20388;-73
2021/09/08 07:26:33;;;;;;;0.40;0.20;;;16.40;99.90;;;;;;5073262;28;20425;-73
2021/09/08 07:29:00;;;;;;;0.40;0.30;;;16.60;99.90;;;;;;5055489;28;20534;-73
2021/09/08 07:31:26;;;;;;;0.40;0.20;;;16.60;99.90;;;;;;5072892;28;20405;-73
2021/09/08 07:33:52;;;;;;;0.40;0.20;;;16.70;99.90;;;;;;5073915;28;20380;-73
2021/09/08 07:36:17;;;;;;;0.40;0.30;;;16.90;99.90;;;;;;5073362;28;20467;-74
2021/09/08 07:38:43;;;;;;;0.40;0.20;;;16.90;99.90;;;;;;5073489;28;20454;-73
2021/09/08 07:41:09;;;;;;;0.40;0.30;;;17.00;99.90;;;;;;5073743;28;20399;-73
2021/09/08 07:43:34;;;;;;;0.40;0.30;;;17.10;99.90;;;;;;5072846;28;20380;-73
2021/09/08 07:46:00;;;;;;;0.40;0.30;;;17.20;99.90;;;;;;5073617;28;20434;-73
2021/09/08 07:48:26;;;;;;;0.40;0.30;;;17.40;99.90;;;;;;5072995;28;20390;-74
2021/09/08 07:50:51;;;;;;;0.50;0.40;;;17.50;99.90;;;;;;5073035;28;20442;-73
2021/09/08 07:53:17;;;;;;;0.40;0.30;;;17.80;99.90;;;;;;5073016;28;20881;-73
2021/09/08 07:55:43;;;;;;;0.40;0.30;;;18.00;99.90;;;;;;5072640;28;20376;-74
2021/09/08 07:58:08;;;;;;;0.40;0.30;;;18.10;99.90;;;;;;5073089;28;20398;-73
2021/09/08 08:00:36;;;;;;;0.40;0.20;;;18.40;99.90;;;;;;5072465;28;20462;-74
2021/09/08 08:03:02;;;;;;;0.40;0.30;;;18.40;99.90;;;;;;5073119;28;20773;-74
2021/09/08 08:05:30;;;;;;;0.40;0.30;;;18.60;99.90;;;;;;5072280;28;20371;-73
2021/09/08 08:07:55;;;;;;;0.40;0.20;;;18.60;99.90;;;;;;5072860;28;20391;-73
2021/09/08 08:10:21;;;;;;;0.40;0.30;;;18.80;98.20;;;;;;5072070;28;20419;-73
2021/09/08 08:12:47;;;;;;;0.40;0.27;;;19.00;97.00;;;;;;5072870;28;20379;-74
2021/09/08 08:15:14;;;;;;;0.40;0.30;;;19.10;98.30;;;;;;5072823;28;20442;-74
2021/09/08 08:17:40;;;;;;;0.40;0.30;;;19.10;97.40;;;;;;5072212;28;20660;-73
2021/09/08 08:20:08;;;;;;;0.40;0.20;;;19.10;97.50;;;;;;5072435;28;20745;-73
2021/09/08 08:22:38;;;;;;;0.40;0.20;;;19.30;97.90;;;;;;5072175;28;20759;-74
2021/09/08 08:25:05;;;;;;;0.40;0.30;;;19.30;98.70;;;;;;5072823;28;20463;-74
2021/09/08 08:27:31;;;;;;;0.40;0.20;;;19.20;99.60;;;;;;5072256;28;20426;-74
2021/09/08 08:29:57;;;;;;;0.40;0.30;;;19.10;99.20;;;;;;5072459;28;20420;-74
2021/09/08 08:32:24;;;;;;;0.40;0.30;;;19.10;99.00;;;;;;5071949;28;20379;-74
2021/09/08 08:34:50;;;;;;;0.40;0.30;;;19.20;99.30;;;;;;5054465;28;20386;-74
2021/09/08 08:37:16;;;;;;;0.40;0.30;;;19.40;97.30;;;;;;5072206;28;20415;-74
2021/09/08 08:39:42;;;;;;;0.40;0.23;;;19.50;97.10;;;;;;5071673;28;20844;-74
2021/09/08 08:42:13;;;;;;;0.40;0.40;;;19.50;97.60;;;;;;5072014;28;20380;-74
2021/09/08 08:44:40;;;;;;;0.40;0.30;;;19.50;97.50;;;;;;5071605;28;20386;-73
2021/09/08 08:47:06;;;;;;;0.40;0.30;;;19.80;97.10;;;;;;5072281;28;20379;-74
2021/09/08 08:49:33;;;;;;;0.40;0.30;;;19.90;97.70;;;;;;5071332;28;20396;-74
2021/09/08 08:51:59;;;;;;;0.40;0.30;;;19.80;97.70;;;;;;5071846;28;20383;-73
2021/09/08 08:54:25;;;;;;;0.40;0.30;;;19.80;97.60;;;;;;5071057;28;20376;-72
2021/09/08 08:56:52;;;;;;;0.40;0.30;;;19.90;97.30;;;;;;5071641;28;20380;-74
2021/09/08 08:59:18;;;;;;;0.40;0.20;;;20.00;97.70;;;;;;5071252;28;20424;-74
2021/09/08 09:01:44;;;;;;;0.40;0.30;;;19.90;97.80;;;;;;5071308;28;20384;-74
2021/09/08 09:04:13;;;;;;;0.40;0.30;;;20.10;96.90;;;;;;5071786;28;20466;-73
2021/09/08 09:06:46;;;;;;;0.40;0.30;;;20.10;96.30;;;;;;5070919;28;20501;-73
2021/09/08 09:09:17;;;;;;;0.40;0.20;;;20.10;96.30;;;;;;5071198;28;20497;-73
2021/09/08 09:11:49;;;;;;;0.40;0.30;;;20.20;96.20;;;;;;5070976;28;20977;-72
2021/09/08 09:14:16;;;;;;;0.40;0.30;;;20.30;95.90;;;;;;5072087;28;20410;-73
2021/09/08 09:16:43;;;;;;;0.50;0.50;;;20.40;96.10;;;;;;5071147;28;20380;-72
2021/09/08 09:19:11;;;;;;;0.40;0.30;;;20.40;96.00;;;;;;5071532;28;20743;-73
2021/09/08 09:21:37;;;;;;;0.40;0.30;;;20.40;96.00;;;;;;5082348;28;20386;-72
2021/09/08 09:24:05;;;;;;;0.40;0.30;;;20.40;96.10;;;;;;5092175;28;20378;-73
2021/09/08 09:26:41;;;;;;;0.40;0.30;;;20.50;96.00;;;;;;5091244;28;20738;-73
2021/09/08 09:29:18;;;;;;;0.40;0.30;;;20.70;95.60;;;;;;5091226;28;20441;-72
2021/09/08 09:31:58;;;;;;;0.40;0.30;;;20.80;96.20;;;;;;5091024;28;20389;-72
2021/09/08 09:34:28;;;;;;;0.40;0.30;;;20.90;95.80;;;;;;5091478;28;20734;-72
2021/09/08 09:36:55;;;;;;;0.40;0.30;;;20.90;95.80;;;;;;5091530;28;20362;-73
2021/09/08 09:39:22;;;;;;;0.40;0.30;;;21.00;95.50;;;;;;5091578;28;20416;-74
2021/09/08 09:41:48;;;;;;;0.40;0.30;;;20.80;95.90;;;;;;5090791;28;20381;-74
2021/09/08 09:44:15;;;;;;;0.40;0.20;;;20.80;95.40;;;;;;5091500;28;20374;-74
2021/09/08 09:46:45;;;;;;;0.40;0.20;;;21.00;94.60;;;;;;5090798;28;20443;-74
2021/09/08 09:49:14;;;;;;;0.40;0.30;;;21.10;95.00;;;;;;5091071;28;20389;-74
2021/09/08 09:51:41;;;;;;;0.40;0.20;;;21.20;94.70;;;;;;5090766;28;20402;-74
2021/09/08 09:54:07;;;;;;;0.40;0.30;;;21.30;94.90;;;;;;5091381;28;20385;-73
2021/09/08 09:56:33;;;;;;;0.40;0.20;;;21.40;94.60;;;;;;5090585;28;20375;-74
2021/09/08 09:58:59;;;;;;;0.40;0.20;;;21.30;94.80;;;;;;5090811;28;20774;-74
2021/09/08 10:01:25;;;;;;;0.40;0.30;;;21.40;94.50;;;;;;5090980;28;20377;-73
2021/09/08 10:03:52;;;;;;;0.40;0.20;;;21.50;94.00;;;;;;5090272;28;20402;-73
2021/09/08 10:06:18;;;;;;;0.40;0.20;;;21.50;93.10;;;;;;5091102;28;20370;-73
2021/09/08 10:08:47;;;;;;;0.40;0.30;;;21.70;93.60;;;;;;5074029;28;20941;-75
2021/09/08 10:11:20;;;;;;;0.40;0.20;;;21.70;92.90;;;;;;5070509;28;20403;-74
2021/09/08 10:13:55;;;;;;;0.40;0.20;;;21.60;93.20;;;;;;5069951;28;20767;-74
2021/09/08 10:16:22;;;;;;;0.40;0.20;;;21.70;92.90;;;;;;5070690;28;20417;-74
2021/09/08 10:18:49;;;;;;;0.40;0.30;;;21.80;92.60;;;;;;5069792;28;20411;-73
2021/09/08 10:21:19;;;;;;;0.40;0.20;;;21.90;92.30;;;;;;5070547;28;20388;-74
2021/09/08 10:23:58;;;;;;;0.40;0.20;;;22.00;92.30;;;;;;5069766;28;20417;-73
2021/09/08 10:26:30;;;;;;;0.40;0.30;;;22.10;92.30;;;;;;5070474;28;20367;-74
2021/09/08 10:29:05;;;;;;;0.40;0.30;;;22.30;91.60;;;;;;5070101;28;20905;-74
2021/09/08 10:31:40;;;;;;;0.40;0.20;;;22.40;92.00;;;;;;5053325;28;20375;-74
2021/09/08 10:34:07;;;;;;;0.40;0.30;;;22.40;91.70;;;;;;5070371;28;20510;-75
2021/09/08 10:36:35;;;;;;;0.40;0.30;;;22.50;91.00;;;;;;5069357;28;20394;-75
2021/09/08 10:39:12;;;;;;;0.40;0.30;;;22.60;91.20;;;;;;5070239;28;20384;-74
2021/09/08 10:41:37;;;;;;;0.40;0.30;;;22.60;91.20;;;;;;5070484;28;20409;-75
2021/09/08 10:44:03;;;;;;;0.40;0.30;;;22.70;91.40;;;;;;5074373;28;20734;-74
2021/09/08 10:46:55;;;;;;;0.40;0.30;;;22.80;90.70;;;;;;5073698;28;20967;-74
2021/09/08 10:49:36;;;;;;;0.40;0.20;;;22.80;90.60;;;;;;5074017;28;20444;-76
2021/09/08 10:52:06;;;;;;;0.40;0.30;;;23.00;91.10;;;;;;5073931;28;20380;-75
2021/09/08 10:54:32;;;;;;;0.40;0.30;;;22.90;91.40;;;;;;5070916;28;20840;-74
2021/09/08 10:56:58;;;;;;;0.40;0.30;;;23.20;90.50;;;;;;5074168;28;20387;-75
2021/09/08 10:59:24;;;;;;;0.40;0.20;;;23.30;90.80;;;;;;5057743;28;20419;-75
2021/09/08 11:01:54;;;;;;;0.40;0.30;;;23.50;89.50;;;;;;5089832;28;20382;-75
2021/09/08 11:04:19;;;;;;;0.40;0.30;;;23.40;90.10;;;;;;5055882;28;20392;-75
2021/09/08 11:06:48;;;;;;;0.40;0.20;;;23.60;90.10;;;;;;5054862;28;20382;-74
2021/09/08 11:09:16;;;;;;;0.40;0.20;;;23.80;88.60;;;;;;5073474;28;20390;-75
2021/09/08 11:11:52;;;;;;;0.40;0.20;;;23.80;87.60;;;;;;5072631;28;20380;-72
2021/09/08 11:14:18;;;;;;;0.40;0.30;;;23.80;87.60;;;;;;5073708;28;20728;-75
2021/09/08 11:16:44;;;;;;;0.40;0.20;;;23.90;87.80;;;;;;5072544;28;20796;-73
2021/09/08 11:19:12;;;;;;;0.40;0.30;;;24.10;87.60;;;;;;5073516;28;20375;-75
2021/09/08 11:21:38;;;;;;;0.40;0.30;;;24.30;87.00;;;;;;5054673;28;20407;-73
2021/09/08 11:24:09;;;;;;;0.40;0.30;;;24.20;86.00;;;;;;5072988;28;20387;-75
2021/09/08 11:26:38;;;;;;;0.40;0.30;;;24.50;85.60;;;;;;5073033;28;20467;-74
2021/09/08 11:29:08;;;;;;;0.40;0.30;;;24.80;85.70;;;;;;5073306;28;20399;-75
2021/09/08 11:31:45;;;;;;;0.40;0.30;;;25.30;83.80;;;;;;5073082;28;20415;-74
2021/09/08 11:34:19;;;;;;;0.40;0.30;;;25.60;81.50;;;;;;5073441;28;20417;-75
2021/09/08 11:36:45;;;;;;;0.40;0.20;;;25.90;80.10;;;;;;5071935;28;20944;-75
2021/09/08 11:39:15;;;;;;;0.40;0.30;;;26.20;76.40;;;;;;5073268;28;20376;-74
2021/09/08 11:41:53;;;;;;;0.40;0.30;;;26.30;75.50;;;;;;5087977;28;20387;-75
2021/09/08 11:44:19;;;;;;;0.40;0.20;;;26.30;78.10;;;;;;5073243;28;20735;-75
2021/09/08 11:46:45;;;;;;;0.40;0.20;;;26.40;81.70;;;;;;5072236;28;20376;-74
2021/09/08 11:49:11;;;;;;;0.40;0.30;;;26.30;77.30;;;;;;5072563;28;20383;-76
2021/09/08 11:51:43;;;;;;;0.40;0.30;;;26.30;77.70;;;;;;5070836;28;20446;-73
2021/09/08 11:54:16;;;;;;;0.40;0.30;;;26.10;75.20;;;;;;5072044;28;20392;-75
2021/09/08 11:56:42;;;;;;;0.40;0.30;;;26.20;75.90;;;;;;5072213;28;20386;-74
2021/09/08 11:59:08;;;;;;;0.40;0.30;;;26.30;75.10;;;;;;5071061;28;20419;-74
2021/09/08 12:01:41;;;;;;;0.40;0.30;;;26.70;74.20;;;;;;5072711;28;20469;-75
2021/09/08 12:04:09;;;;;;;0.40;0.30;;;26.80;73.80;;;;;;5072823;28;20711;-75
2021/09/08 12:07:00;;;;;;;0.50;0.40;;;26.80;72.90;;;;;;5071414;28;20767;-74
2021/09/08 12:09:28;;;;;;;0.40;0.30;;;26.70;76.90;;;;;;5052809;28;20409;-75
2021/09/08 12:11:58;;;;;;;0.40;0.20;;;27.00;73.20;;;;;;5051391;28;20918;-75
2021/09/08 12:14:33;;;;;;;0.40;0.20;;;27.00;74.00;;;;;;5052433;28;20373;-74
2021/09/08 12:17:23;;;;;;;0.40;0.20;;;26.50;72.20;;;;;;5051720;28;20517;-75
2021/09/08 12:19:58;;;;;;;0.40;0.20;;;27.00;71.80;;;;;;5051547;28;20447;-73
2021/09/08 12:22:31;;;;;;;0.40;0.20;;;26.30;73.90;;;;;;5052713;28;20942;-75
2021/09/08 12:25:04;;;;;;;0.40;0.20;;;26.50;75.50;;;;;;5068092;28;20827;-74
2021/09/08 12:27:44;;;;;;;0.40;0.20;;;26.00;77.30;;;;;;5072267;28;20368;-74
2021/09/08 12:30:22;;;;;;;0.40;0.30;;;26.30;81.30;;;;;;5072255;28;20763;-74
2021/09/08 12:33:03;;;;;;;0.40;0.30;;;26.70;76.20;;;;;;5070944;28;20855;-76
2021/09/08 12:35:53;;;;;;;0.40;0.20;;;26.80;75.90;;;;;;5072204;28;20505;-75
2021/09/08 12:38:32;;;;;;;0.40;0.30;;;26.80;77.80;;;;;;5072138;28;20421;-74
2021/09/08 12:41:16;;;;;;;0.40;0.20;;;26.50;76.10;;;;;;5071298;28;20498;-75
2021/09/08 12:43:45;;;;;;;0.40;0.30;;;26.70;74.80;;;;;;5071407;28;20380;-75
2021/09/08 12:46:11;;;;;;;0.40;0.20;;;26.90;76.20;;;;;;5072018;28;20392;-75
2021/09/08 12:48:37;;;;;;;0.40;0.20;;;26.90;75.20;;;;;;5071729;28;20809;-74